sensor_id;sensor_type;location;lat;lon;timestamp;temperature;humidity
7530;DHT22;3806;52.270;10.544;2023-07-20T00:01:35;19.20;95.90
7530;DHT22;3806;52.270;10.544;2023-07-20T00:04:00;19.20;96.10
7530;DHT22;3806;52.270;10.544;2023-07-20T00:06:27;19.10;96.20
7530;DHT22;3806;52.270;10.544;2023-07-20T00:08:55;19.10;96.40
7530;DHT22;3806;52.270;10.544;2023-07-20T00:11:25;19.10;96.50
7530;DHT22;3806;52.270;10.544;2023-07-20T00:13:51;19.10;96.50
7530;DHT22;3806;52.270;10.544;2023-07-20T00:16:17;19.10;96.70
7530;DHT22;3806;52.270;10.544;2023-07-20T00:18:42;19.10;96.70
7530;DHT22;3806;52.270;10.544;2023-07-20T00:21:08;19.10;96.80
7530;DHT22;3806;52.270;10.544;2023-07-20T00:23:33;19.10;96.90
7530;DHT22;3806;52.270;10.544;2023-07-20T00:25:59;19.10;97.00
7530;DHT22;3806;52.270;10.544;2023-07-20T00:28:25;19.10;97.10
7530;DHT22;3806;52.270;10.544;2023-07-20T00:30:50;19.10;97.10
7530;DHT22;3806;52.270;10.544;2023-07-20T00:33:17;19.00;97.20
7530;DHT22;3806;52.270;10.544;2023-07-20T00:35:43;19.00;97.30
7530;DHT22;3806;52.270;10.544;2023-07-20T00:38:09;18.90;97.40
7530;DHT22;3806;52.270;10.544;2023-07-20T00:40:38;18.90;97.60
7530;DHT22;3806;52.270;10.544;2023-07-20T00:43:04;18.80;97.80
7530;DHT22;3806;52.270;10.544;2023-07-20T00:45:29;18.80;97.90
7530;DHT22;3806;52.270;10.544;2023-07-20T00:47:56;18.80;98.10
7530;DHT22;3806;52.270;10.544;2023-07-20T00:50:22;18.70;98.20
7530;DHT22;3806;52.270;10.544;2023-07-20T00:52:49;18.70;98.40
7530;DHT22;3806;52.270;10.544;2023-07-20T00:55:14;18.70;98.50
7530;DHT22;3806;52.270;10.544;2023-07-20T00:57:40;18.60;98.70
7530;DHT22;3806;52.270;10.544;2023-07-20T01:00:06;18.60;98.70
7530;DHT22;3806;52.270;10.544;2023-07-20T01:02:32;18.60;98.90
7530;DHT22;3806;52.270;10.544;2023-07-20T01:04:57;18.60;98.90
7530;DHT22;3806;52.270;10.544;2023-07-20T01:07:50;18.50;99.00
7530;DHT22;3806;52.270;10.544;2023-07-20T01:10:40;18.50;99.10
7530;DHT22;3806;52.270;10.544;2023-07-20T01:13:07;18.40;99.30
7530;DHT22;3806;52.270;10.544;2023-07-20T01:15:34;18.40;99.50
7530;DHT22;3806;52.270;10.544;2023-07-20T01:18:00;18.40;99.60
7530;DHT22;3806;52.270;10.544;2023-07-20T01:20:31;18.40;99.80
7530;DHT22;3806;52.270;10.544;2023-07-20T01:23:09;18.40;99.80
7530;DHT22;3806;52.270;10.544;2023-07-20T01:31:35;18.30;99.90
7530;DHT22;3806;52.270;10.544;2023-07-20T01:34:03;18.30;99.90
7530;DHT22;3806;52.270;10.544;2023-07-20T01:36:34;18.20;99.90
7530;DHT22;3806;52.270;10.544;2023-07-20T01:39:00;18.20;99.90
7530;DHT22;3806;52.270;10.544;2023-07-20T01:41:27;18.20;99.90
7530;DHT22;3806;52.270;10.544;2023-07-20T01:43:52;18.20;99.90
7530;DHT22;3806;52.270;10.544;2023-07-20T01:46:18;18.20;99.90
7530;DHT22;3806;52.270;10.544;2023-07-20T01:48:44;18.20;99.90
7530;DHT22;3806;52.270;10.544;2023-07-20T01:51:09;18.20;99.90
7530;DHT22;3806;52.270;10.544;2023-07-20T01:53:35;18.20;99.90
7530;DHT22;3806;52.270;10.544;2023-07-20T01:56:00;18.20;99.90
7530;DHT22;3806;52.270;10.544;2023-07-20T01:58:26;18.20;99.90
7530;DHT22;3806;52.270;10.544;2023-07-20T02:00:51;18.20;99.90
7530;DHT22;3806;52.270;10.544;2023-07-20T02:03:17;18.20;99.90
7530;DHT22;3806;52.270;10.544;2023-07-20T02:05:42;18.20;99.90
7530;DHT22;3806;52.270;10.544;2023-07-20T02:08:08;18.20;99.90
7530;DHT22;3806;52.270;10.544;2023-07-20T02:10:35;18.20;99.90
7530;DHT22;3806;52.270;10.544;2023-07-20T02:13:00;18.20;99.90
7530;DHT22;3806;52.270;10.544;2023-07-20T02:15:26;18.20;99.90
7530;DHT22;3806;52.270;10.544;2023-07-20T02:17:52;18.10;99.90
7530;DHT22;3806;52.270;10.544;2023-07-20T02:20:18;18.10;99.90
7530;DHT22;3806;52.270;10.544;2023-07-20T02:22:44;18.10;99.90
7530;DHT22;3806;52.270;10.544;2023-07-20T02:25:10;18.10;99.90
7530;DHT22;3806;52.270;10.544;2023-07-20T02:27:37;18.10;99.90
7530;DHT22;3806;52.270;10.544;2023-07-20T02:30:03;18.00;99.90
7530;DHT22;3806;52.270;10.544;2023-07-20T02:32:29;18.00;99.90
7530;DHT22;3806;52.270;10.544;2023-07-20T02:34:54;18.00;99.90
7530;DHT22;3806;52.270;10.544;2023-07-20T02:37:20;17.90;99.90
7530;DHT22;3806;52.270;10.544;2023-07-20T02:39:45;17.90;99.90
7530;DHT22;3806;52.270;10.544;2023-07-20T02:42:11;17.90;99.90
7530;DHT22;3806;52.270;10.544;2023-07-20T02:44:36;17.90;99.90
7530;DHT22;3806;52.270;10.544;2023-07-20T02:47:02;17.90;99.90
7530;DHT22;3806;52.270;10.544;2023-07-20T02:49:28;17.90;99.90
7530;DHT22;3806;52.270;10.544;2023-07-20T02:51:53;17.90;99.90
7530;DHT22;3806;52.270;10.544;2023-07-20T02:54:20;17.90;99.90
7530;DHT22;3806;52.270;10.544;2023-07-20T02:56:45;17.90;99.90
7530;DHT22;3806;52.270;10.544;2023-07-20T02:59:11;17.90;99.90
7530;DHT22;3806;52.270;10.544;2023-07-20T03:01:36;17.90;99.90
7530;DHT22;3806;52.270;10.544;2023-07-20T03:04:02;17.90;99.90
7530;DHT22;3806;52.270;10.544;2023-07-20T03:06:27;18.00;99.90
7530;DHT22;3806;52.270;10.544;2023-07-20T03:08:53;17.90;99.90
7530;DHT22;3806;52.270;10.544;2023-07-20T03:11:20;17.90;99.90
7530;DHT22;3806;52.270;10.544;2023-07-20T03:13:46;17.90;99.90
7530;DHT22;3806;52.270;10.544;2023-07-20T03:16:13;17.90;99.90
7530;DHT22;3806;52.270;10.544;2023-07-20T03:18:41;17.90;99.90
7530;DHT22;3806;52.270;10.544;2023-07-20T03:21:08;17.90;99.90
7530;DHT22;3806;52.270;10.544;2023-07-20T03:23:36;17.90;99.90
7530;DHT22;3806;52.270;10.544;2023-07-20T03:26:02;17.90;99.90
7530;DHT22;3806;52.270;10.544;2023-07-20T03:28:28;17.90;99.90
7530;DHT22;3806;52.270;10.544;2023-07-20T03:30:57;17.90;99.90
7530;DHT22;3806;52.270;10.544;2023-07-20T03:33:25;17.80;99.90
7530;DHT22;3806;52.270;10.544;2023-07-20T03:35:51;17.80;99.90
7530;DHT22;3806;52.270;10.544;2023-07-20T03:38:17;17.80;99.90
7530;DHT22;3806;52.270;10.544;2023-07-20T03:40:53;17.80;99.90
7530;DHT22;3806;52.270;10.544;2023-07-20T03:43:19;17.80;99.90
7530;DHT22;3806;52.270;10.544;2023-07-20T03:45:45;17.80;99.90
7530;DHT22;3806;52.270;10.544;2023-07-20T03:48:11;17.80;99.90
7530;DHT22;3806;52.270;10.544;2023-07-20T03:50:37;17.80;99.90
7530;DHT22;3806;52.270;10.544;2023-07-20T03:53:03;17.80;99.90
7530;DHT22;3806;52.270;10.544;2023-07-20T03:55:28;17.90;99.90
7530;DHT22;3806;52.270;10.544;2023-07-20T03:57:54;17.90;99.90
7530;DHT22;3806;52.270;10.544;2023-07-20T04:00:19;17.90;99.90
7530;DHT22;3806;52.270;10.544;2023-07-20T04:02:45;17.90;99.90
7530;DHT22;3806;52.270;10.544;2023-07-20T04:05:11;18.00;99.90
7530;DHT22;3806;52.270;10.544;2023-07-20T04:07:36;18.00;99.90
7530;DHT22;3806;52.270;10.544;2023-07-20T04:10:02;18.00;99.90
7530;DHT22;3806;52.270;10.544;2023-07-20T04:12:27;18.00;99.90
7530;DHT22;3806;52.270;10.544;2023-07-20T04:14:53;18.00;99.90
7530;DHT22;3806;52.270;10.544;2023-07-20T04:17:19;18.00;99.90
7530;DHT22;3806;52.270;10.544;2023-07-20T04:19:44;18.10;99.90
7530;DHT22;3806;52.270;10.544;2023-07-20T04:22:10;18.10;99.90
7530;DHT22;3806;52.270;10.544;2023-07-20T04:24:35;18.10;99.90
7530;DHT22;3806;52.270;10.544;2023-07-20T04:27:01;18.10;99.90
7530;DHT22;3806;52.270;10.544;2023-07-20T04:29:27;18.20;99.90
7530;DHT22;3806;52.270;10.544;2023-07-20T04:31:52;18.20;99.90
7530;DHT22;3806;52.270;10.544;2023-07-20T04:34:18;18.20;99.90
7530;DHT22;3806;52.270;10.544;2023-07-20T04:36:43;18.20;99.90
7530;DHT22;3806;52.270;10.544;2023-07-20T04:39:09;18.30;99.90
7530;DHT22;3806;52.270;10.544;2023-07-20T04:41:35;18.30;99.90
7530;DHT22;3806;52.270;10.544;2023-07-20T04:44:01;18.30;99.90
7530;DHT22;3806;52.270;10.544;2023-07-20T04:46:26;18.40;99.90
7530;DHT22;3806;52.270;10.544;2023-07-20T04:48:52;18.40;99.90
7530;DHT22;3806;52.270;10.544;2023-07-20T04:51:17;18.40;99.90
7530;DHT22;3806;52.270;10.544;2023-07-20T04:53:46;18.40;99.90
7530;DHT22;3806;52.270;10.544;2023-07-20T04:56:12;18.60;99.90
7530;DHT22;3806;52.270;10.544;2023-07-20T04:58:37;18.70;99.70
7530;DHT22;3806;52.270;10.544;2023-07-20T05:01:03;18.90;99.50
7530;DHT22;3806;52.270;10.544;2023-07-20T05:03:28;19.30;99.20
7530;DHT22;3806;52.270;10.544;2023-07-20T05:05:54;20.00;98.40
7530;DHT22;3806;52.270;10.544;2023-07-20T05:08:20;20.60;97.00
7530;DHT22;3806;52.270;10.544;2023-07-20T05:10:47;21.00;96.00
7530;DHT22;3806;52.270;10.544;2023-07-20T05:13:13;21.50;94.60
7530;DHT22;3806;52.270;10.544;2023-07-20T05:15:39;21.70;93.60
7530;DHT22;3806;52.270;10.544;2023-07-20T05:18:05;21.50;93.10
7530;DHT22;3806;52.270;10.544;2023-07-20T05:20:31;21.40;93.00
7530;DHT22;3806;52.270;10.544;2023-07-20T05:22:58;21.10;93.10
7530;DHT22;3806;52.270;10.544;2023-07-20T05:25:24;20.90;93.40
7530;DHT22;3806;52.270;10.544;2023-07-20T05:27:49;20.70;93.60
7530;DHT22;3806;52.270;10.544;2023-07-20T05:30:16;20.60;94.00
7530;DHT22;3806;52.270;10.544;2023-07-20T05:32:41;20.40;94.10
7530;DHT22;3806;52.270;10.544;2023-07-20T05:35:07;20.30;94.40
7530;DHT22;3806;52.270;10.544;2023-07-20T05:37:34;20.10;94.70
7530;DHT22;3806;52.270;10.544;2023-07-20T05:39:59;19.90;94.90
7530;DHT22;3806;52.270;10.544;2023-07-20T05:42:25;19.80;95.20
7530;DHT22;3806;52.270;10.544;2023-07-20T05:44:50;19.70;95.60
7530;DHT22;3806;52.270;10.544;2023-07-20T05:47:18;19.50;96.10
7530;DHT22;3806;52.270;10.544;2023-07-20T05:49:43;19.40;96.90
7530;DHT22;3806;52.270;10.544;2023-07-20T05:52:09;19.30;97.50
7530;DHT22;3806;52.270;10.544;2023-07-20T05:54:34;19.30;98.20
7530;DHT22;3806;52.270;10.544;2023-07-20T05:57:00;19.30;98.80
7530;DHT22;3806;52.270;10.544;2023-07-20T05:59:27;19.20;99.40
7530;DHT22;3806;52.270;10.544;2023-07-20T06:01:54;19.20;99.40
7530;DHT22;3806;52.270;10.544;2023-07-20T06:04:20;19.10;99.70
7530;DHT22;3806;52.270;10.544;2023-07-20T06:06:45;19.00;99.90
7530;DHT22;3806;52.270;10.544;2023-07-20T06:09:11;19.00;99.90
7530;DHT22;3806;52.270;10.544;2023-07-20T06:11:38;18.90;99.90
7530;DHT22;3806;52.270;10.544;2023-07-20T06:14:04;18.90;99.90
7530;DHT22;3806;52.270;10.544;2023-07-20T06:16:29;18.90;99.90
7530;DHT22;3806;52.270;10.544;2023-07-20T06:18:55;18.90;99.90
7530;DHT22;3806;52.270;10.544;2023-07-20T06:21:20;18.90;99.90
7530;DHT22;3806;52.270;10.544;2023-07-20T06:23:46;18.90;99.90
7530;DHT22;3806;52.270;10.544;2023-07-20T06:26:12;18.90;99.90
7530;DHT22;3806;52.270;10.544;2023-07-20T06:28:37;18.90;99.90
7530;DHT22;3806;52.270;10.544;2023-07-20T06:31:04;18.90;99.90
7530;DHT22;3806;52.270;10.544;2023-07-20T06:33:29;18.90;99.90
7530;DHT22;3806;52.270;10.544;2023-07-20T06:35:55;19.00;99.90
7530;DHT22;3806;52.270;10.544;2023-07-20T06:38:22;19.00;99.90
7530;DHT22;3806;52.270;10.544;2023-07-20T06:40:49;19.00;99.90
7530;DHT22;3806;52.270;10.544;2023-07-20T06:43:15;18.90;99.90
7530;DHT22;3806;52.270;10.544;2023-07-20T06:45:41;18.90;99.90
7530;DHT22;3806;52.270;10.544;2023-07-20T06:48:07;18.90;99.90
7530;DHT22;3806;52.270;10.544;2023-07-20T06:50:32;18.90;99.90
7530;DHT22;3806;52.270;10.544;2023-07-20T06:52:58;18.90;99.90
7530;DHT22;3806;52.270;10.544;2023-07-20T06:55:24;18.80;99.90
7530;DHT22;3806;52.270;10.544;2023-07-20T06:57:50;18.80;99.90
7530;DHT22;3806;52.270;10.544;2023-07-20T07:00:16;18.80;99.90
7530;DHT22;3806;52.270;10.544;2023-07-20T07:02:41;18.80;99.90
7530;DHT22;3806;52.270;10.544;2023-07-20T07:05:07;18.80;99.90
7530;DHT22;3806;52.270;10.544;2023-07-20T07:07:32;18.90;99.90
7530;DHT22;3806;52.270;10.544;2023-07-20T07:09:59;18.90;99.90
7530;DHT22;3806;52.270;10.544;2023-07-20T07:12:25;18.80;99.90
7530;DHT22;3806;52.270;10.544;2023-07-20T07:14:50;18.80;99.90
7530;DHT22;3806;52.270;10.544;2023-07-20T07:17:16;18.90;99.90
7530;DHT22;3806;52.270;10.544;2023-07-20T07:19:41;18.90;99.90
7530;DHT22;3806;52.270;10.544;2023-07-20T07:22:07;19.00;99.90
7530;DHT22;3806;52.270;10.544;2023-07-20T07:24:33;19.10;99.90
7530;DHT22;3806;52.270;10.544;2023-07-20T07:27:00;19.10;99.90
7530;DHT22;3806;52.270;10.544;2023-07-20T07:29:25;19.20;99.90
7530;DHT22;3806;52.270;10.544;2023-07-20T07:31:51;19.20;99.90
7530;DHT22;3806;52.270;10.544;2023-07-20T07:34:17;19.20;99.90
7530;DHT22;3806;52.270;10.544;2023-07-20T07:36:43;19.10;99.90
7530;DHT22;3806;52.270;10.544;2023-07-20T07:39:08;19.10;99.90
7530;DHT22;3806;52.270;10.544;2023-07-20T07:41:35;19.00;99.90
7530;DHT22;3806;52.270;10.544;2023-07-20T07:44:00;18.90;99.90
7530;DHT22;3806;52.270;10.544;2023-07-20T07:46:26;18.90;99.90
7530;DHT22;3806;52.270;10.544;2023-07-20T07:48:51;18.90;99.90
7530;DHT22;3806;52.270;10.544;2023-07-20T07:51:17;19.00;99.90
7530;DHT22;3806;52.270;10.544;2023-07-20T07:53:42;19.10;99.90
7530;DHT22;3806;52.270;10.544;2023-07-20T07:56:09;19.10;99.90
7530;DHT22;3806;52.270;10.544;2023-07-20T07:58:35;19.10;99.90
7530;DHT22;3806;52.270;10.544;2023-07-20T08:01:00;19.20;99.90
7530;DHT22;3806;52.270;10.544;2023-07-20T08:03:26;19.30;99.90
7530;DHT22;3806;52.270;10.544;2023-07-20T08:05:54;19.40;99.90
7530;DHT22;3806;52.270;10.544;2023-07-20T08:08:25;19.50;99.90
7530;DHT22;3806;52.270;10.544;2023-07-20T08:10:53;19.80;99.90
7530;DHT22;3806;52.270;10.544;2023-07-20T08:13:18;20.10;99.90
7530;DHT22;3806;52.270;10.544;2023-07-20T08:15:48;20.60;99.90
7530;DHT22;3806;52.270;10.544;2023-07-20T08:18:14;21.00;99.90
7530;DHT22;3806;52.270;10.544;2023-07-20T08:20:43;21.60;99.10
7530;DHT22;3806;52.270;10.544;2023-07-20T08:23:09;22.30;97.90
7530;DHT22;3806;52.270;10.544;2023-07-20T08:25:36;22.80;96.10
7530;DHT22;3806;52.270;10.544;2023-07-20T08:28:04;23.00;94.90
7530;DHT22;3806;52.270;10.544;2023-07-20T08:30:42;23.20;94.00
7530;DHT22;3806;52.270;10.544;2023-07-20T08:33:18;23.40;93.30
7530;DHT22;3806;52.270;10.544;2023-07-20T08:35:45;23.50;92.80
7530;DHT22;3806;52.270;10.544;2023-07-20T08:38:11;23.80;92.60
7530;DHT22;3806;52.270;10.544;2023-07-20T08:40:45;24.20;91.90
7530;DHT22;3806;52.270;10.544;2023-07-20T08:43:11;24.60;90.80
7530;DHT22;3806;52.270;10.544;2023-07-20T08:45:39;25.10;89.50
7530;DHT22;3806;52.270;10.544;2023-07-20T08:48:06;25.40;86.90
7530;DHT22;3806;52.270;10.544;2023-07-20T08:50:32;25.70;84.10
7530;DHT22;3806;52.270;10.544;2023-07-20T08:52:59;25.80;80.90
7530;DHT22;3806;52.270;10.544;2023-07-20T08:55:29;25.90;78.60
7530;DHT22;3806;52.270;10.544;2023-07-20T08:57:56;25.80;77.00
7530;DHT22;3806;52.270;10.544;2023-07-20T09:00:23;25.50;76.90
7530;DHT22;3806;52.270;10.544;2023-07-20T09:02:51;25.30;77.70
7530;DHT22;3806;52.270;10.544;2023-07-20T09:05:17;25.20;78.70
7530;DHT22;3806;52.270;10.544;2023-07-20T09:07:43;25.40;78.20
7530;DHT22;3806;52.270;10.544;2023-07-20T09:10:09;25.70;76.90
7530;DHT22;3806;52.270;10.544;2023-07-20T09:12:38;25.90;74.90
7530;DHT22;3806;52.270;10.544;2023-07-20T09:15:05;26.20;72.00
7530;DHT22;3806;52.270;10.544;2023-07-20T09:17:31;26.30;70.50
7530;DHT22;3806;52.270;10.544;2023-07-20T09:19:56;26.10;68.50
7530;DHT22;3806;52.270;10.544;2023-07-20T09:22:29;25.90;68.80
7530;DHT22;3806;52.270;10.544;2023-07-20T09:24:55;25.70;68.90
7530;DHT22;3806;52.270;10.544;2023-07-20T09:27:21;25.40;68.00
7530;DHT22;3806;52.270;10.544;2023-07-20T09:29:51;25.20;67.10
7530;DHT22;3806;52.270;10.544;2023-07-20T09:32:20;25.20;66.30
7530;DHT22;3806;52.270;10.544;2023-07-20T09:34:46;25.40;65.80
7530;DHT22;3806;52.270;10.544;2023-07-20T09:37:12;25.70;66.00
7530;DHT22;3806;52.270;10.544;2023-07-20T09:39:45;26.00;65.10
7530;DHT22;3806;52.270;10.544;2023-07-20T09:42:12;26.30;64.40
7530;DHT22;3806;52.270;10.544;2023-07-20T09:44:39;26.70;63.80
7530;DHT22;3806;52.270;10.544;2023-07-20T09:47:05;27.00;61.60
7530;DHT22;3806;52.270;10.544;2023-07-20T09:49:31;27.30;58.30
7530;DHT22;3806;52.270;10.544;2023-07-20T09:51:58;27.50;57.10
7530;DHT22;3806;52.270;10.544;2023-07-20T09:54:26;27.80;55.20
7530;DHT22;3806;52.270;10.544;2023-07-20T09:56:53;28.10;54.30
7530;DHT22;3806;52.270;10.544;2023-07-20T09:59:19;28.40;53.20
7530;DHT22;3806;52.270;10.544;2023-07-20T10:01:45;28.50;52.70
7530;DHT22;3806;52.270;10.544;2023-07-20T10:04:11;28.50;51.10
7530;DHT22;3806;52.270;10.544;2023-07-20T10:06:42;28.50;52.10
7530;DHT22;3806;52.270;10.544;2023-07-20T10:09:09;28.30;50.90
7530;DHT22;3806;52.270;10.544;2023-07-20T10:11:36;27.90;51.30
7530;DHT22;3806;52.270;10.544;2023-07-20T10:14:04;27.60;51.60
7530;DHT22;3806;52.270;10.544;2023-07-20T10:16:38;27.20;50.70
7530;DHT22;3806;52.270;10.544;2023-07-20T10:19:13;26.70;50.00
7530;DHT22;3806;52.270;10.544;2023-07-20T10:21:47;26.40;50.20
7530;DHT22;3806;52.270;10.544;2023-07-20T10:24:14;26.10;50.70
7530;DHT22;3806;52.270;10.544;2023-07-20T10:26:40;25.90;51.20
7530;DHT22;3806;52.270;10.544;2023-07-20T10:29:06;25.70;51.30
7530;DHT22;3806;52.270;10.544;2023-07-20T10:31:33;25.50;50.90
7530;DHT22;3806;52.270;10.544;2023-07-20T10:33:59;25.40;51.50
7530;DHT22;3806;52.270;10.544;2023-07-20T10:36:26;25.30;51.90
7530;DHT22;3806;52.270;10.544;2023-07-20T10:38:56;25.30;52.30
7530;DHT22;3806;52.270;10.544;2023-07-20T10:41:39;25.60;53.40
7530;DHT22;3806;52.270;10.544;2023-07-20T10:44:07;25.90;52.40
7530;DHT22;3806;52.270;10.544;2023-07-20T10:46:44;26.30;49.90
7530;DHT22;3806;52.270;10.544;2023-07-20T10:49:14;26.40;49.40
7530;DHT22;3806;52.270;10.544;2023-07-20T10:51:45;26.40;48.70
7530;DHT22;3806;52.270;10.544;2023-07-20T10:56:44;26.40;48.70
7530;DHT22;3806;52.270;10.544;2023-07-20T10:59:20;26.30;48.00
7530;DHT22;3806;52.270;10.544;2023-07-20T11:02:08;26.10;47.60
7530;DHT22;3806;52.270;10.544;2023-07-20T11:04:47;26.10;48.60
7530;DHT22;3806;52.270;10.544;2023-07-20T11:07:17;26.30;48.10
7530;DHT22;3806;52.270;10.544;2023-07-20T11:09:43;26.50;47.80
7530;DHT22;3806;52.270;10.544;2023-07-20T11:12:11;26.60;46.40
7530;DHT22;3806;52.270;10.544;2023-07-20T11:14:57;26.60;45.80
7530;DHT22;3806;52.270;10.544;2023-07-20T11:17:30;26.60;45.30
7530;DHT22;3806;52.270;10.544;2023-07-20T11:19:57;26.50;45.60
7530;DHT22;3806;52.270;10.544;2023-07-20T11:22:23;26.30;46.20
7530;DHT22;3806;52.270;10.544;2023-07-20T11:24:49;26.10;47.00
7530;DHT22;3806;52.270;10.544;2023-07-20T11:27:15;25.90;47.40
7530;DHT22;3806;52.270;10.544;2023-07-20T11:29:41;25.70;48.50
7530;DHT22;3806;52.270;10.544;2023-07-20T11:32:07;25.40;49.10
7530;DHT22;3806;52.270;10.544;2023-07-20T11:34:34;25.20;49.00
7530;DHT22;3806;52.270;10.544;2023-07-20T11:37:00;25.00;49.00
7530;DHT22;3806;52.270;10.544;2023-07-20T11:39:26;25.00;50.00
7530;DHT22;3806;52.270;10.544;2023-07-20T11:41:53;24.90;50.20
7530;DHT22;3806;52.270;10.544;2023-07-20T11:44:21;24.90;50.00
7530;DHT22;3806;52.270;10.544;2023-07-20T11:46:59;25.20;50.10
7530;DHT22;3806;52.270;10.544;2023-07-20T11:49:25;25.50;49.80
7530;DHT22;3806;52.270;10.544;2023-07-20T11:51:51;25.70;49.40
7530;DHT22;3806;52.270;10.544;2023-07-20T11:54:16;25.80;49.30
7530;DHT22;3806;52.270;10.544;2023-07-20T11:56:42;25.70;49.00
7530;DHT22;3806;52.270;10.544;2023-07-20T11:59:08;25.70;49.10
7530;DHT22;3806;52.270;10.544;2023-07-20T12:01:33;25.50;49.10
7530;DHT22;3806;52.270;10.544;2023-07-20T12:04:01;25.40;49.70
7530;DHT22;3806;52.270;10.544;2023-07-20T12:06:30;25.20;50.10
7530;DHT22;3806;52.270;10.544;2023-07-20T12:08:57;24.90;49.90
7530;DHT22;3806;52.270;10.544;2023-07-20T12:11:34;24.80;49.70
7530;DHT22;3806;52.270;10.544;2023-07-20T12:14:00;24.70;49.90
7530;DHT22;3806;52.270;10.544;2023-07-20T12:16:29;24.60;49.90
7530;DHT22;3806;52.270;10.544;2023-07-20T12:19:09;24.60;49.70
7530;DHT22;3806;52.270;10.544;2023-07-20T12:21:36;24.60;51.00
7530;DHT22;3806;52.270;10.544;2023-07-20T12:24:03;24.50;50.60
7530;DHT22;3806;52.270;10.544;2023-07-20T12:26:30;24.40;50.80
7530;DHT22;3806;52.270;10.544;2023-07-20T12:28:56;24.50;51.50
7530;DHT22;3806;52.270;10.544;2023-07-20T12:31:22;24.70;51.30
7530;DHT22;3806;52.270;10.544;2023-07-20T12:33:50;25.00;51.30
7530;DHT22;3806;52.270;10.544;2023-07-20T12:36:16;25.40;50.80
7530;DHT22;3806;52.270;10.544;2023-07-20T12:38:41;25.70;49.80
7530;DHT22;3806;52.270;10.544;2023-07-20T12:41:09;26.00;49.20
7530;DHT22;3806;52.270;10.544;2023-07-20T12:43:35;26.10;48.80
7530;DHT22;3806;52.270;10.544;2023-07-20T12:46:00;26.30;48.70
7530;DHT22;3806;52.270;10.544;2023-07-20T12:48:26;26.30;47.50
7530;DHT22;3806;52.270;10.544;2023-07-20T12:50:52;26.30;47.50
7530;DHT22;3806;52.270;10.544;2023-07-20T12:53:17;26.50;47.60
7530;DHT22;3806;52.270;10.544;2023-07-20T12:55:43;26.60;47.70
7530;DHT22;3806;52.270;10.544;2023-07-20T12:58:09;26.70;46.40
7530;DHT22;3806;52.270;10.544;2023-07-20T13:00:35;26.70;46.00
7530;DHT22;3806;52.270;10.544;2023-07-20T13:03:01;26.70;45.80
7530;DHT22;3806;52.270;10.544;2023-07-20T13:05:30;26.70;45.10
7530;DHT22;3806;52.270;10.544;2023-07-20T13:07:57;26.70;45.30
7530;DHT22;3806;52.270;10.544;2023-07-20T13:10:24;26.70;45.30
7530;DHT22;3806;52.270;10.544;2023-07-20T13:12:49;26.80;44.50
7530;DHT22;3806;52.270;10.544;2023-07-20T13:15:15;26.70;43.90
7530;DHT22;3806;52.270;10.544;2023-07-20T13:17:41;26.70;44.90
7530;DHT22;3806;52.270;10.544;2023-07-20T13:20:08;26.70;44.80
7530;DHT22;3806;52.270;10.544;2023-07-20T13:22:36;26.60;44.30
7530;DHT22;3806;52.270;10.544;2023-07-20T13:25:02;26.50;42.10
7530;DHT22;3806;52.270;10.544;2023-07-20T13:27:27;26.40;42.90
7530;DHT22;3806;52.270;10.544;2023-07-20T13:29:53;26.20;42.10
7530;DHT22;3806;52.270;10.544;2023-07-20T13:32:19;25.90;42.10
7530;DHT22;3806;52.270;10.544;2023-07-20T13:34:45;25.70;43.10
7530;DHT22;3806;52.270;10.544;2023-07-20T13:37:11;25.50;43.70
7530;DHT22;3806;52.270;10.544;2023-07-20T13:39:37;25.40;44.70
7530;DHT22;3806;52.270;10.544;2023-07-20T13:42:03;25.20;44.60
7530;DHT22;3806;52.270;10.544;2023-07-20T13:44:31;25.10;45.20
7530;DHT22;3806;52.270;10.544;2023-07-20T13:46:56;24.90;45.50
7530;DHT22;3806;52.270;10.544;2023-07-20T13:49:23;24.80;46.10
7530;DHT22;3806;52.270;10.544;2023-07-20T13:51:48;24.70;45.30
7530;DHT22;3806;52.270;10.544;2023-07-20T13:54:14;24.60;45.60
7530;DHT22;3806;52.270;10.544;2023-07-20T13:56:39;24.40;45.60
7530;DHT22;3806;52.270;10.544;2023-07-20T13:59:05;24.40;46.10
7530;DHT22;3806;52.270;10.544;2023-07-20T14:01:31;24.30;46.20
7530;DHT22;3806;52.270;10.544;2023-07-20T14:03:59;24.30;46.60
7530;DHT22;3806;52.270;10.544;2023-07-20T14:06:25;24.40;47.40
7530;DHT22;3806;52.270;10.544;2023-07-20T14:08:51;24.40;47.40
7530;DHT22;3806;52.270;10.544;2023-07-20T14:11:18;24.30;47.30
7530;DHT22;3806;52.270;10.544;2023-07-20T14:13:44;24.30;47.80
7530;DHT22;3806;52.270;10.544;2023-07-20T14:16:09;24.30;48.10
7530;DHT22;3806;52.270;10.544;2023-07-20T14:18:35;24.30;48.40
7530;DHT22;3806;52.270;10.544;2023-07-20T14:21:00;24.40;48.80
7530;DHT22;3806;52.270;10.544;2023-07-20T14:23:28;24.60;48.20
7530;DHT22;3806;52.270;10.544;2023-07-20T14:25:54;24.60;47.70
7530;DHT22;3806;52.270;10.544;2023-07-20T14:28:20;24.70;46.30
7530;DHT22;3806;52.270;10.544;2023-07-20T14:30:46;24.60;45.20
7530;DHT22;3806;52.270;10.544;2023-07-20T14:33:12;24.60;45.70
7530;DHT22;3806;52.270;10.544;2023-07-20T14:35:37;24.50;46.10
7530;DHT22;3806;52.270;10.544;2023-07-20T14:38:03;24.40;46.70
7530;DHT22;3806;52.270;10.544;2023-07-20T14:40:28;24.40;47.00
7530;DHT22;3806;52.270;10.544;2023-07-20T14:42:55;24.40;47.10
7530;DHT22;3806;52.270;10.544;2023-07-20T14:45:21;24.40;48.20
7530;DHT22;3806;52.270;10.544;2023-07-20T14:47:46;24.40;47.20
7530;DHT22;3806;52.270;10.544;2023-07-20T14:50:19;24.40;46.50
7530;DHT22;3806;52.270;10.544;2023-07-20T14:52:44;24.50;46.50
7530;DHT22;3806;52.270;10.544;2023-07-20T14:55:10;24.60;47.40
7530;DHT22;3806;52.270;10.544;2023-07-20T14:57:36;24.60;47.00
7530;DHT22;3806;52.270;10.544;2023-07-20T15:00:02;24.60;46.90
7530;DHT22;3806;52.270;10.544;2023-07-20T15:02:32;24.60;47.20
7530;DHT22;3806;52.270;10.544;2023-07-20T15:04:57;24.50;46.00
7530;DHT22;3806;52.270;10.544;2023-07-20T15:07:23;24.40;46.50
7530;DHT22;3806;52.270;10.544;2023-07-20T15:09:48;24.20;46.50
7530;DHT22;3806;52.270;10.544;2023-07-20T15:12:14;24.10;46.90
7530;DHT22;3806;52.270;10.544;2023-07-20T15:14:40;24.00;47.70
7530;DHT22;3806;52.270;10.544;2023-07-20T15:17:07;23.90;48.20
7530;DHT22;3806;52.270;10.544;2023-07-20T15:19:32;23.90;48.80
7530;DHT22;3806;52.270;10.544;2023-07-20T15:22:00;23.80;48.70
7530;DHT22;3806;52.270;10.544;2023-07-20T15:24:25;23.80;49.10
7530;DHT22;3806;52.270;10.544;2023-07-20T15:26:51;23.80;49.10
7530;DHT22;3806;52.270;10.544;2023-07-20T15:29:16;23.80;48.60
7530;DHT22;3806;52.270;10.544;2023-07-20T15:31:42;23.90;49.30
7530;DHT22;3806;52.270;10.544;2023-07-20T15:34:07;23.90;49.10
7530;DHT22;3806;52.270;10.544;2023-07-20T15:36:33;23.90;49.20
7530;DHT22;3806;52.270;10.544;2023-07-20T15:38:58;23.90;48.90
7530;DHT22;3806;52.270;10.544;2023-07-20T15:41:24;23.90;48.70
7530;DHT22;3806;52.270;10.544;2023-07-20T15:43:50;23.90;48.80
7530;DHT22;3806;52.270;10.544;2023-07-20T15:49:04;24.10;47.80
7530;DHT22;3806;52.270;10.544;2023-07-20T15:51:30;24.10;47.00
7530;DHT22;3806;52.270;10.544;2023-07-20T15:53:55;24.10;47.30